Архив погоды в Дальнереченске

Метеограмма Дальнереченск
Четверг, 22 Августа
Время местн. Темп Ветер Видим Явления Облачность нижн/средн/верх Атм. давл. Влжн Точка росы ВНГО R Сост. почвы Tg s
Напр Скр Прв ур.ст ур.м изм
04:00 +17.2° Ю-В 1 - 10 км дождь облачно 747 756 -0.1 95% +16.4° 1 км - - - -
01:00 +17.7° В,Ю-В 1 - 10 км - облачно 747 756 -0.7 90% +16° 1 км - - - -
Среда, 21 Августа
Время местн. Темп Ветер Видим Явления Облачность нижн/средн/верх Атм. давл. Влжн Точка росы ВНГО R Сост. почвы Tg s
Напр Скр Прв ур.ст ур.м изм
22:00 +17.9° Ю,Ю-В 2 - 10 км дождь облачно 748 756 +0.5 92% +16.6° 1 км - - - -
19:00 +19.1° В,Ю-В 2 - 10 км ливневый дождь облачно 747 756 -0.4 92% +17.7° 1 км 0.7 - - -
16:00 +20.9° В,Ю-В 2 - 10 км небо без изменений {ливневые осадки} облачно 748 756 -1.1 82% +17.7° 1 км - - - -
13:00 +19.8° В,Ю-В 1 - 4 км дымка {ливневые осадки} облачно 749 758 -0.8 92% +18.4° 1 км - - - -
10:00 +18.4° В 1 - 4 км дымка {туман} облачно 750 758 +0.1 97% +17.9° 1 км - - - -
07:00 +17° штиль 0 - 500 м туман, небо видно ясно 749 758 +0.1 97% +16.5° более 2.5 км 0 Влажная (без луж) +18° -
04:00 +17.2° штиль 0 - 10 км - переменная облачность 749 758 -0.5 97% +16.7° более 2.5 км - - - -
01:00 +18.1° штиль 0 - 10 км - переменная облачность 750 759 -0.3 95% +17.3° более 2.5 км - - - -
Вторник, 20 Августа
Время местн. Темп Ветер Видим Явления Облачность нижн/средн/верх Атм. давл. Влжн Точка росы ВНГО R Сост. почвы Tg s
Напр Скр Прв ур.ст ур.м изм
22:00 +18.9° штиль 0 - 10 км - переменная облачность 750 759 +0.4 93% +17.7° более 2.5 км - - - -
19:00 +23.1° Ю-З 1 - 20 км - облачно с прояснениями 750 759 0 71% +17.6° 1 км 0 - - -
16:00 +24.7° З,Ю-З 2 - 20 км - переменная облачность 750 758 -1 63% +17.3° 1 км - - - -
13:00 +23.5° Ю,Ю-З 4 - 20 км - облачно с прояснениями 751 759 -0.2 70% +17.8° 1 км - - - -
10:00 +20.4° Ю,Ю-З 3 - 10 км - переменная облачность 751 760 0 88% +18.4° 1 км - - - -
07:00 +17.8° Ю,Ю-З 3 - 10 км - облачно 751 760 -0.1 97% +17.3° 1 км 0.4 Влажная (без луж) - -
04:00 +18.7° Ю-З 3 - 10 км - облачно 751 760 +0.1 96% +18° 1 км - - - -
01:00 +18° З,Ю-З 1 - 10 км - переменная облачность 751 760 +0.2 95% +17.2° 1 км - - - -
Понедельник, 19 Августа
Время местн. Темп Ветер Видим Явления Облачность нижн/средн/верх Атм. давл. Влжн Точка росы ВНГО R Сост. почвы Tg s
Напр Скр Прв ур.ст ур.м изм
22:00 +18.6° штиль 0 - 10 км небо без изменений {ливневые осадки} переменная облачность 750 759 +0.2 93% +17.5° 1 км - - - -
19:00 +21° В,Ю-В 2 - 20 км - преимущественно облачно 750 759 +0.5 79% +17.2° 1 км 0 - - -
16:00 +24.6° З 2 - 20 км - облачно с прояснениями 750 759 -0.9 62% +16.8° 1 км - - - -
13:00 +23.2° Ю-З 4 - 20 км - переменная облачность 751 759 +0.2 74% +18.4° 1 км - - - -
10:00 +21.5° Ю-З 2 - 20 км - переменная облачность 751 759 +0.9 81% +18.1° 1 км - - - -
07:00 +18.2° Ю,Ю-З 2 - 20 км - переменная облачность 750 759 +0.9 93% +17° 600 м 8 Влажная (без луж) - -
04:00 +19° Ю,Ю-З 2 - 10 км - облачно 749 758 +0.9 93% +17.8° 1 км - - - -
01:00 +18.5° Ю,Ю-З 1 - 10 км - преимущественно облачно 748 757 +1.2 94% +17.5° 1 км - - - -